Time,TemperatureF,DewpointF,PressureIn,WindDirection,WindDirectionDegrees,WindSpeedMPH,WindSpeedGustMPH,Humidity,HourlyPrecipIn,Conditions,Clouds,dailyrainin,SoftwareType,DateUTC
2013-07-11 00:07:00,84.7,70.0,29.85,SSE,157,4.0,-999.0,61,-99.99,,,0.00,weatherlink.com 1.10,2013-07-11 05:07:00,
2013-07-11 00:22:00,82.8,70.0,29.85,SE,146,0.0,-999.0,66,-99.99,,,0.00,weatherlink.com 1.10,2013-07-11 05:22:00,
2013-07-11 00:37:00,82.2,70.0,29.86,SSE,148,0.0,-999.0,67,-99.99,,,0.00,weatherlink.com 1.10,2013-07-11 05:37:00,
2013-07-11 00:52:00,82.2,71.0,29.86,SSE,162,1.0,-999.0,68,-99.99,,,0.00,weatherlink.com 1.10,2013-07-11 05:52:00,
2013-07-11 01:07:00,82.2,71.0,29.87,South,175,0.0,-999.0,68,-99.99,,,0.00,weatherlink.com 1.10,2013-07-11 06:07:00,
2013-07-11 01:22:00,81.6,71.0,29.87,South,172,0.0,-999.0,69,-99.99,,,0.00,weatherlink.com 1.10,2013-07-11 06:22:00,
2013-07-11 01:37:00,81.2,71.0,29.88,South,172,0.0,-999.0,70,-99.99,,,0.00,weatherlink.com 1.10,2013-07-11 06:37:00,
2013-07-11 01:52:00,81.1,71.0,29.88,South,172,0.0,-999.0,71,-99.99,,,0.00,weatherlink.com 1.10,2013-07-11 06:52:00,
2013-07-11 02:07:00,80.7,71.0,29.88,South,172,0.0,-999.0,72,-99.99,,,0.00,weatherlink.com 1.10,2013-07-11 07:07:00,
2013-07-11 02:22:00,80.3,71.0,29.89,South,172,0.0,-999.0,72,-99.99,,,0.00,weatherlink.com 1.10,2013-07-11 07:22:00,
2013-07-11 02:37:00,79.9,71.0,29.88,South,172,0.0,-999.0,73,-99.99,,,0.00,weatherlink.com 1.10,2013-07-11 07:37:00,
2013-07-11 02:52:00,79.8,70.0,29.88,South,172,0.0,-999.0,73,-99.99,,,0.00,weatherlink.com 1.10,2013-07-11 07:52:00,
2013-07-11 03:07:00,79.4,70.0,29.89,SSE,163,0.0,-999.0,73,-99.99,,,0.00,weatherlink.com 1.10,2013-07-11 08:07:00,
2013-07-11 03:22:00,79.0,70.0,29.88,SSE,163,0.0,-999.0,74,-99.99,,,0.00,weatherlink.com 1.10,2013-07-11 08:22:00,
2013-07-11 03:37:00,78.8,70.0,29.88,SSE,163,0.0,-999.0,74,-99.99,,,0.00,weatherlink.com 1.10,2013-07-11 08:37:00,
2013-07-11 03:52:00,78.6,70.0,29.88,SSE,163,0.0,-999.0,74,-99.99,,,0.00,weatherlink.com 1.10,2013-07-11 08:52:00,
2013-07-11 04:07:00,78.5,70.0,29.87,SSE,163,0.0,-999.0,75,-99.99,,,0.00,weatherlink.com 1.10,2013-07-11 09:07:00,
2013-07-11 04:22:00,78.3,70.0,29.88,SSE,163,0.0,-999.0,75,-99.99,,,0.00,weatherlink.com 1.10,2013-07-11 09:22:00,
2013-07-11 04:37:00,78.1,70.0,29.88,SSE,161,0.0,-999.0,76,-99.99,,,0.00,weatherlink.com 1.10,2013-07-11 09:37:00,
2013-07-11 04:52:00,77.9,70.0,29.88,SSE,161,0.0,-999.0,76,-99.99,,,0.00,weatherlink.com 1.10,2013-07-11 09:52:00,
2013-07-11 05:07:00,77.7,70.0,29.87,SSE,159,0.0,-999.0,77,-99.99,,,0.00,weatherlink.com 1.10,2013-07-11 10:07:00,
2013-07-11 05:22:00,77.4,70.0,29.87,SE,146,0.0,-999.0,77,-99.99,,,0.00,weatherlink.com 1.10,2013-07-11 10:22:00,
2013-07-11 05:37:00,77.4,70.0,29.88,SE,146,0.0,-999.0,77,-99.99,,,0.00,weatherlink.com 1.10,2013-07-11 10:37:00,
2013-07-11 05:52:00,77.2,70.0,29.88,SE,142,0.0,-999.0,78,-99.99,,,0.00,weatherlink.com 1.10,2013-07-11 10:52:00,
2013-07-11 06:07:00,76.8,69.0,29.88,SE,142,0.0,-999.0,78,-99.99,,,0.00,weatherlink.com 1.10,2013-07-11 11:07:00,
2013-07-11 06:22:00,76.8,69.0,29.89,SE,142,0.0,-999.0,78,-99.99,,,0.00,weatherlink.com 1.10,2013-07-11 11:22:00,
2013-07-11 06:37:00,76.7,70.0,29.89,SE,142,0.0,-999.0,79,-99.99,,,0.00,weatherlink.com 1.10,2013-07-11 11:37:00,
2013-07-11 06:52:00,76.8,70.0,29.89,SE,142,0.0,-999.0,79,-99.99,,,0.00,weatherlink.com 1.10,2013-07-11 11:52:00,
2013-07-11 07:07:00,77.0,70.0,29.89,SE,142,0.0,-999.0,78,-99.99,,,0.00,weatherlink.com 1.10,2013-07-11 12:07:00,
2013-07-11 07:22:00,77.6,70.0,29.90,SE,142,0.0,-999.0,78,-99.99,,,0.00,weatherlink.com 1.10,2013-07-11 12:22:00,
2013-07-11 07:37:00,78.6,70.0,29.90,SSE,148,0.0,-999.0,76,-99.99,,,0.00,weatherlink.com 1.10,2013-07-11 12:37:00,
2013-07-11 07:52:00,79.6,70.0,29.89,South,179,0.0,-999.0,73,-99.99,,,0.00,weatherlink.com 1.10,2013-07-11 12:52:00,
2013-07-11 08:07:00,80.5,71.0,29.90,SE,136,0.0,-999.0,72,-99.99,,,0.00,weatherlink.com 1.10,2013-07-11 13:07:00,
2013-07-11 08:22:00,81.2,71.0,29.90,South,175,0.0,-999.0,70,-99.99,,,0.00,weatherlink.com 1.10,2013-07-11 13:22:00,
2013-07-11 08:52:00,83.4,71.0,29.89,South,180,0.0,-999.0,67,-99.99,,,0.00,weatherlink.com 1.10,2013-07-11 13:52:00,
2013-07-11 09:07:00,84.5,70.0,29.89,SW,215,5.0,-999.0,63,-99.99,,,0.00,weatherlink.com 1.10,2013-07-11 14:07:00,
2013-07-11 09:37:00,85.3,70.0,29.89,SSW,201,2.0,-999.0,61,-99.99,,,0.00,weatherlink.com 1.10,2013-07-11 14:37:00,
2013-07-11 09:52:00,85.9,70.0,29.89,South,188,2.0,-999.0,60,-99.99,,,0.00,weatherlink.com 1.10,2013-07-11 14:52:00,
2013-07-11 10:07:00,87.0,71.0,29.89,SW,229,0.0,-999.0,59,-99.99,,,0.00,weatherlink.com 1.10,2013-07-11 15:07:00,
2013-07-11 10:37:00,88.4,71.0,29.89,NNE,13,5.0,-999.0,56,-99.99,,,0.00,weatherlink.com 1.10,2013-07-11 15:37:00,
2013-07-11 10:52:00,88.2,71.0,29.89,North,5,0.0,-999.0,57,-99.99,,,0.00,weatherlink.com 1.10,2013-07-11 15:52:00,
2013-07-11 11:22:00,91.8,70.0,29.89,NNW,334,0.0,-999.0,49,-99.99,,,0.00,weatherlink.com 1.10,2013-07-11 16:22:00,
2013-07-11 11:37:00,93.8,71.0,29.89,North,11,0.0,-999.0,47,-99.99,,,0.00,weatherlink.com 1.10,2013-07-11 16:37:00,
2013-07-11 11:52:00,93.4,70.0,29.89,NNE,24,5.0,-999.0,47,-99.99,,,0.00,weatherlink.com 1.10,2013-07-11 16:52:00,
2013-07-11 12:07:00,95.6,70.0,29.89,NE,41,2.0,-999.0,44,-99.99,,,0.00,weatherlink.com 1.10,2013-07-11 17:07:00,
2013-07-11 12:22:00,96.1,72.0,29.89,ENE,78,4.0,-999.0,45,-99.99,,,0.00,weatherlink.com 1.10,2013-07-11 17:22:00,
2013-07-11 12:52:00,96.8,70.0,29.88,NE,41,0.0,-999.0,42,-99.99,,,0.00,weatherlink.com 1.10,2013-07-11 17:52:00,
2013-07-11 13:07:00,98.2,69.0,29.88,NE,37,3.0,-999.0,39,-99.99,,,0.00,weatherlink.com 1.10,2013-07-11 18:07:00,
2013-07-11 13:22:00,98.0,71.0,29.88,NE,42,0.0,-999.0,41,-99.99,,,0.00,weatherlink.com 1.10,2013-07-11 18:22:00,
2013-07-11 13:37:00,97.5,70.0,29.87,NE,44,4.0,-999.0,41,-99.99,,,0.00,weatherlink.com 1.10,2013-07-11 18:37:00,
2013-07-11 13:52:00,98.7,70.0,29.87,ENE,65,2.0,-999.0,39,-99.99,,,0.00,weatherlink.com 1.10,2013-07-11 18:52:00,
2013-07-11 14:07:00,99.7,68.0,29.86,NE,52,7.0,-999.0,36,-99.99,,,0.00,weatherlink.com 1.10,2013-07-11 19:07:00,
2013-07-11 14:22:00,99.4,69.0,29.86,NE,38,0.0,-999.0,37,-99.99,,,0.00,weatherlink.com 1.10,2013-07-11 19:22:00,
2013-07-11 14:37:00,99.9,70.0,29.86,NNE,26,3.0,-999.0,38,-99.99,,,0.00,weatherlink.com 1.10,2013-07-11 19:37:00,
2013-07-11 14:52:00,99.4,70.0,29.85,NE,42,0.0,-999.0,39,-99.99,,,0.00,weatherlink.com 1.10,2013-07-11 19:52:00,
2013-07-11 15:07:00,99.9,69.0,29.85,ENE,78,3.0,-999.0,36,-99.99,,,0.00,weatherlink.com 1.10,2013-07-11 20:07:00,
2013-07-11 15:22:00,99.7,69.0,29.84,East,83,0.0,-999.0,37,-99.99,,,0.00,weatherlink.com 1.10,2013-07-11 20:22:00,
2013-07-11 15:37:00,99.9,69.0,29.84,NE,52,5.0,-999.0,37,-99.99,,,0.00,weatherlink.com 1.10,2013-07-11 20:37:00,
2013-07-11 15:52:00,100.7,69.0,29.83,NNE,26,0.0,-999.0,36,-99.99,,,0.00,weatherlink.com 1.10,2013-07-11 20:52:00,
2013-07-11 16:07:00,99.9,69.0,29.82,ENE,71,1.0,-999.0,36,-99.99,,,0.00,weatherlink.com 1.10,2013-07-11 21:07:00,
2013-07-11 16:22:00,100.2,69.0,29.82,NE,43,6.0,-999.0,36,-99.99,,,0.00,weatherlink.com 1.10,2013-07-11 21:22:00,
2013-07-11 16:37:00,99.4,70.0,29.81,East,88,3.0,-999.0,38,-99.99,,,0.00,weatherlink.com 1.10,2013-07-11 21:37:00,
2013-07-11 16:52:00,98.7,69.0,29.81,North,11,4.0,-999.0,38,-99.99,,,0.00,weatherlink.com 1.10,2013-07-11 21:52:00,
2013-07-11 17:07:00,99.0,68.0,29.80,East,92,4.0,-999.0,36,-99.99,,,0.00,weatherlink.com 1.10,2013-07-11 22:07:00,
2013-07-11 17:22:00,98.7,67.0,29.81,NE,44,4.0,-999.0,36,-99.99,,,0.00,weatherlink.com 1.10,2013-07-11 22:22:00,
2013-07-11 17:37:00,97.5,68.0,29.79,NE,52,4.0,-999.0,38,-99.99,,,0.00,weatherlink.com 1.10,2013-07-11 22:37:00,
2013-07-11 17:52:00,96.1,68.0,29.81,East,89,6.0,-999.0,40,-99.99,,,0.00,weatherlink.com 1.10,2013-07-11 22:52:00,
2013-07-11 18:22:00,96.6,66.0,29.80,ENE,59,4.0,-999.0,37,-99.99,,,0.00,weatherlink.com 1.10,2013-07-11 23:22:00,
2013-07-11 18:52:00,95.6,65.0,29.80,ESE,114,0.0,-999.0,36,-99.99,,,0.00,weatherlink.com 1.10,2013-07-11 23:52:00,
2013-07-11 19:07:00,96.1,64.0,29.80,ESE,119,3.0,-999.0,35,-99.99,,,0.00,weatherlink.com 1.10,2013-07-12 00:07:00,
2013-07-11 19:22:00,96.1,64.0,29.80,ESE,107,0.0,-999.0,35,-99.99,,,0.00,weatherlink.com 1.10,2013-07-12 00:22:00,
2013-07-11 19:37:00,95.9,65.0,29.81,East,96,0.0,-999.0,36,-99.99,,,0.00,weatherlink.com 1.10,2013-07-12 00:37:00,
2013-07-11 19:52:00,95.1,66.0,29.81,East,96,0.0,-999.0,38,-99.99,,,0.00,weatherlink.com 1.10,2013-07-12 00:52:00,
2013-07-11 20:07:00,94.3,67.0,29.81,East,97,0.0,-999.0,40,-99.99,,,0.00,weatherlink.com 1.10,2013-07-12 01:07:00,
2013-07-11 20:22:00,92.9,67.0,29.81,ESE,103,0.0,-999.0,42,-99.99,,,0.00,weatherlink.com 1.10,2013-07-12 01:22:00,
2013-07-11 20:37:00,91.6,67.0,29.82,SSE,150,1.0,-999.0,45,-99.99,,,0.00,weatherlink.com 1.10,2013-07-12 01:37:00,
2013-07-11 20:52:00,90.3,69.0,29.82,SSE,159,0.0,-999.0,49,-99.99,,,0.00,weatherlink.com 1.10,2013-07-12 01:52:00,
2013-07-11 21:07:00,89.0,69.0,29.83,SSE,158,0.0,-999.0,52,-99.99,,,0.00,weatherlink.com 1.10,2013-07-12 02:07:00,
2013-07-11 21:22:00,88.4,69.0,29.83,SSE,156,0.0,-999.0,53,-99.99,,,0.00,weatherlink.com 1.10,2013-07-12 02:22:00,
2013-07-11 21:37:00,87.8,69.0,29.84,SSE,156,0.0,-999.0,54,-99.99,,,0.00,weatherlink.com 1.10,2013-07-12 02:37:00,
2013-07-11 21:52:00,87.0,69.0,29.84,SSE,156,0.0,-999.0,56,-99.99,,,0.00,weatherlink.com 1.10,2013-07-12 02:52:00,
2013-07-11 22:22:00,86.1,69.0,29.84,SSE,156,0.0,-999.0,56,-99.99,,,0.00,weatherlink.com 1.10,2013-07-12 03:22:00,
2013-07-11 22:37:00,85.9,69.0,29.84,SSE,156,0.0,-999.0,57,-99.99,,,0.00,weatherlink.com 1.10,2013-07-12 03:37:00,
2013-07-11 22:52:00,85.7,69.0,29.84,SSE,156,0.0,-999.0,57,-99.99,,,0.00,weatherlink.com 1.10,2013-07-12 03:52:00,
2013-07-11 23:07:00,85.5,68.0,29.84,SSE,156,0.0,-999.0,57,-99.99,,,0.00,weatherlink.com 1.10,2013-07-12 04:07:00,
2013-07-11 23:22:00,85.3,68.0,29.84,SSE,156,0.0,-999.0,57,-99.99,,,0.00,weatherlink.com 1.10,2013-07-12 04:22:00,
2013-07-11 23:37:00,84.9,68.0,29.85,SSE,156,0.0,-999.0,58,-99.99,,,0.00,weatherlink.com 1.10,2013-07-12 04:37:00,
2013-07-11 23:52:00,84.5,69.0,29.85,SSE,156,0.0,-999.0,60,-99.99,,,0.00,weatherlink.com 1.10,2013-07-12 04:52:00,